Orbital elements of FENGYUN 1C DEB
| Launched | 9 May 1999 |
| Flight ended | – |
| Launch site | Taiyuan Space Center, PRC |
| Owner | People's Republic of China |
| NORAD ID | 30015 |
| Date fetched |
Epoch osculation |
Inc. [°] |
Ecc. | RA asc node [hr] |
Arg Peri. [°] |
Mean anom [°] |
Mean motion [rev/day] |
Abs. mag |
| Date fetched |
Epoch osculation |
Inc. [°] |
Ecc. | RA asc node [hr] |
Arg Peri. [°] |
Mean anom [°] |
Mean motion [rev/day] |
Abs. mag |
| 2026 May 01 17:56 | 2026 Apr 30 14:38:28 | 99.2251 | 0.00390 | 9.1352 | 85.0653 | 39.5346 | 14.31283 | – |
| 2026 Apr 30 17:56 | 2026 Apr 30 14:38:28 | 99.2251 | 0.00390 | 9.1352 | 85.0653 | 39.5346 | 14.31283 | – |
| 2026 Apr 29 17:57 | 2026 Apr 24 00:28:39 | 99.2260 | 0.00391 | 8.6688 | 103.3918 | 39.5346 | 14.31283 | – |
| 2026 Apr 28 17:56 | 2026 Apr 24 00:28:39 | 99.2260 | 0.00391 | 8.6688 | 103.3918 | 39.5346 | 14.31283 | – |
| 2026 Apr 27 17:58 | 2026 Apr 24 00:28:39 | 99.2260 | 0.00391 | 8.6688 | 103.3918 | 39.5346 | 14.31283 | – |
| 2026 Apr 26 17:58 | 2026 Apr 24 00:28:39 | 99.2260 | 0.00391 | 8.6688 | 103.3918 | 39.5346 | 14.31283 | – |
| 2026 Apr 25 17:58 | 2026 Apr 24 00:28:39 | 99.2260 | 0.00391 | 8.6688 | 103.3918 | 39.5346 | 14.31283 | – |
| 2026 Apr 24 17:59 | 2026 Apr 24 00:28:39 | 99.2260 | 0.00391 | 8.6688 | 103.3918 | 39.5346 | 14.31283 | – |
| 2026 Apr 23 17:57 | 2026 Apr 18 23:41:23 | 99.2266 | 0.00390 | 8.3125 | 117.4210 | 39.5346 | 14.31283 | – |
| 2026 Apr 22 17:57 | 2026 Apr 18 23:41:23 | 99.2266 | 0.00390 | 8.3125 | 117.4210 | 39.5346 | 14.31283 | – |
| 2026 Apr 21 17:57 | 2026 Apr 18 23:41:23 | 99.2266 | 0.00390 | 8.3125 | 117.4210 | 39.5346 | 14.31283 | – |
| 2026 Apr 20 17:57 | 2026 Apr 18 23:41:23 | 99.2266 | 0.00390 | 8.3125 | 117.4210 | 39.5346 | 14.31283 | – |
| 2026 Apr 19 17:58 | 2026 Apr 18 23:41:23 | 99.2266 | 0.00390 | 8.3125 | 117.4210 | 39.5346 | 14.31283 | – |
| 2026 Apr 18 17:56 | 2026 Apr 12 23:31:41 | 99.2271 | 0.00388 | 7.8873 | 134.2198 | 39.5346 | 14.31283 | – |
| 2026 Apr 16 17:57 | 2026 Apr 12 23:31:41 | 99.2271 | 0.00388 | 7.8873 | 134.2198 | 39.5346 | 14.31283 | – |
| 2026 Apr 14 17:57 | 2026 Apr 12 23:31:41 | 99.2271 | 0.00388 | 7.8873 | 134.2198 | 39.5346 | 14.31283 | – |
| 2026 Apr 13 17:57 | 2026 Apr 12 23:31:41 | 99.2271 | 0.00388 | 7.8873 | 134.2198 | 39.5346 | 14.31283 | – |
| 2026 Apr 12 17:57 | 2026 Apr 08 12:38:02 | 99.2278 | 0.00386 | 7.5721 | 146.7283 | 39.5346 | 14.31283 | – |
| 2026 Apr 11 17:57 | 2026 Apr 08 12:38:02 | 99.2278 | 0.00386 | 7.5721 | 146.7283 | 39.5346 | 14.31283 | – |
| 2026 Apr 10 17:58 | 2026 Apr 08 12:38:02 | 99.2278 | 0.00386 | 7.5721 | 146.7283 | 39.5346 | 14.31283 | – |
| 2026 Apr 09 18:01 | 2026 Apr 08 12:38:02 | 99.2278 | 0.00386 | 7.5721 | 146.7283 | 39.5346 | 14.31283 | – |
| 2026 Apr 08 17:57 | 2026 Apr 08 12:38:02 | 99.2278 | 0.00386 | 7.5721 | 146.7283 | 39.5346 | 14.31283 | – |
| 2026 Apr 07 17:57 | 2026 Apr 02 06:37:31 | 99.2279 | 0.00382 | 7.1296 | 164.4624 | 39.5346 | 14.31283 | – |
| 2026 Apr 06 17:57 | 2026 Apr 02 06:37:31 | 99.2279 | 0.00382 | 7.1296 | 164.4624 | 39.5346 | 14.31283 | – |
| 2026 Apr 05 17:56 | 2026 Apr 02 06:37:31 | 99.2279 | 0.00382 | 7.1296 | 164.4624 | 39.5346 | 14.31283 | – |
| 2026 Apr 04 17:57 | 2026 Apr 02 06:37:31 | 99.2279 | 0.00382 | 7.1296 | 164.4624 | 39.5346 | 14.31283 | – |